sensor_id;sensor_type;location;lat;lon;timestamp;pressure;altitude;pressure_sealevel;temperature;humidity
23899;BME280;20544;50.018;20.010;2023-04-19T00:00:22;98974.52;;;10.84;100.00
23899;BME280;20544;50.018;20.010;2023-04-19T00:03:41;98965.91;;;10.82;100.00
23899;BME280;20544;50.018;20.010;2023-04-19T00:06:57;98962.91;;;10.86;100.00
23899;BME280;20544;50.018;20.010;2023-04-19T00:10:14;98963.91;;;10.84;100.00
23899;BME280;20544;50.018;20.010;2023-04-19T00:13:31;98959.60;;;10.83;100.00
23899;BME280;20544;50.018;20.010;2023-04-19T00:16:47;98957.01;;;10.75;100.00
23899;BME280;20544;50.018;20.010;2023-04-19T00:20:05;98951.70;;;10.75;100.00
23899;BME280;20544;50.018;20.010;2023-04-19T00:23:22;98948.23;;;10.75;100.00
23899;BME280;20544;50.018;20.010;2023-04-19T00:26:38;98954.20;;;10.77;100.00
23899;BME280;20544;50.018;20.010;2023-04-19T00:29:55;98951.17;;;10.80;100.00
23899;BME280;20544;50.018;20.010;2023-04-19T00:33:11;98946.70;;;10.80;100.00
23899;BME280;20544;50.018;20.010;2023-04-19T00:36:29;98947.52;;;10.81;100.00
23899;BME280;20544;50.018;20.010;2023-04-19T00:39:46;98941.22;;;10.82;100.00
23899;BME280;20544;50.018;20.010;2023-04-19T00:43:06;98933.73;;;10.86;100.00
23899;BME280;20544;50.018;20.010;2023-04-19T00:46:22;98935.06;;;10.81;100.00
23899;BME280;20544;50.018;20.010;2023-04-19T00:49:39;98932.41;;;10.81;100.00
23899;BME280;20544;50.018;20.010;2023-04-19T00:52:56;98928.30;;;10.79;100.00
23899;BME280;20544;50.018;20.010;2023-04-19T00:56:14;98934.59;;;10.78;100.00
23899;BME280;20544;50.018;20.010;2023-04-19T00:59:33;98918.40;;;10.73;100.00
23899;BME280;20544;50.018;20.010;2023-04-19T01:02:49;98923.23;;;10.69;100.00
23899;BME280;20544;50.018;20.010;2023-04-19T01:06:06;98913.66;;;10.68;100.00
23899;BME280;20544;50.018;20.010;2023-04-19T01:09:23;98907.59;;;10.59;100.00
23899;BME280;20544;50.018;20.010;2023-04-19T01:12:39;98897.56;;;10.46;100.00
23899;BME280;20544;50.018;20.010;2023-04-19T01:15:56;98886.16;;;10.46;100.00
23899;BME280;20544;50.018;20.010;2023-04-19T01:19:13;98877.54;;;10.44;100.00
23899;BME280;20544;50.018;20.010;2023-04-19T01:22:30;98887.80;;;10.47;100.00
23899;BME280;20544;50.018;20.010;2023-04-19T01:25:48;98882.31;;;10.48;100.00
23899;BME280;20544;50.018;20.010;2023-04-19T01:29:05;98881.94;;;10.51;100.00
23899;BME280;20544;50.018;20.010;2023-04-19T01:32:21;98880.61;;;10.56;100.00
23899;BME280;20544;50.018;20.010;2023-04-19T01:35:39;98880.23;;;10.59;100.00
23899;BME280;20544;50.018;20.010;2023-04-19T01:38:55;98880.42;;;10.57;100.00
23899;BME280;20544;50.018;20.010;2023-04-19T01:42:12;98870.15;;;10.54;100.00
23899;BME280;20544;50.018;20.010;2023-04-19T01:45:29;98871.19;;;10.53;100.00
23899;BME280;20544;50.018;20.010;2023-04-19T01:48:45;98867.69;;;10.52;100.00
23899;BME280;20544;50.018;20.010;2023-04-19T01:52:02;98862.28;;;10.46;100.00
23899;BME280;20544;50.018;20.010;2023-04-19T01:55:19;98859.64;;;10.46;100.00
23899;BME280;20544;50.018;20.010;2023-04-19T01:58:35;98852.21;;;10.41;100.00
23899;BME280;20544;50.018;20.010;2023-04-19T02:01:51;98853.14;;;10.48;100.00
23899;BME280;20544;50.018;20.010;2023-04-19T02:05:09;98854.52;;;10.44;100.00
23899;BME280;20544;50.018;20.010;2023-04-19T02:08:25;98848.50;;;10.50;100.00
23899;BME280;20544;50.018;20.010;2023-04-19T02:11:44;98843.91;;;10.44;100.00
23899;BME280;20544;50.018;20.010;2023-04-19T02:15:01;98832.18;;;10.39;100.00
23899;BME280;20544;50.018;20.010;2023-04-19T02:18:19;98837.23;;;10.48;100.00
23899;BME280;20544;50.018;20.010;2023-04-19T02:21:36;98829.47;;;10.47;100.00
23899;BME280;20544;50.018;20.010;2023-04-19T02:24:54;98831.19;;;10.40;100.00
23899;BME280;20544;50.018;20.010;2023-04-19T02:28:10;98814.50;;;10.31;100.00
23899;BME280;20544;50.018;20.010;2023-04-19T02:31:27;98816.30;;;10.30;100.00
23899;BME280;20544;50.018;20.010;2023-04-19T02:34:43;98817.11;;;10.16;100.00
23899;BME280;20544;50.018;20.010;2023-04-19T02:38:01;98806.74;;;10.06;100.00
23899;BME280;20544;50.018;20.010;2023-04-19T02:41:18;98812.86;;;10.07;100.00
23899;BME280;20544;50.018;20.010;2023-04-19T02:44:35;98807.55;;;10.07;100.00
23899;BME280;20544;50.018;20.010;2023-04-19T02:47:51;98812.98;;;10.13;100.00
23899;BME280;20544;50.018;20.010;2023-04-19T02:51:08;98800.73;;;10.12;100.00
23899;BME280;20544;50.018;20.010;2023-04-19T02:54:29;98805.66;;;10.15;100.00
23899;BME280;20544;50.018;20.010;2023-04-19T02:57:46;98802.48;;;10.20;100.00
23899;BME280;20544;50.018;20.010;2023-04-19T03:01:02;98807.50;;;10.15;100.00
23899;BME280;20544;50.018;20.010;2023-04-19T03:04:19;98803.01;;;10.15;100.00
23899;BME280;20544;50.018;20.010;2023-04-19T03:07:37;98801.55;;;10.13;100.00
23899;BME280;20544;50.018;20.010;2023-04-19T03:10:53;98799.27;;;10.10;100.00
23899;BME280;20544;50.018;20.010;2023-04-19T03:14:10;98792.68;;;10.06;100.00
23899;BME280;20544;50.018;20.010;2023-04-19T03:17:27;98791.45;;;9.93;100.00
23899;BME280;20544;50.018;20.010;2023-04-19T03:20:45;98785.69;;;9.90;100.00
23899;BME280;20544;50.018;20.010;2023-04-19T03:24:02;98789.98;;;9.91;100.00
23899;BME280;20544;50.018;20.010;2023-04-19T03:27:22;98786.39;;;9.83;100.00
23899;BME280;20544;50.018;20.010;2023-04-19T03:30:40;98780.38;;;9.90;100.00
23899;BME280;20544;50.018;20.010;2023-04-19T03:33:56;98783.03;;;9.90;100.00
23899;BME280;20544;50.018;20.010;2023-04-19T03:37:14;98775.42;;;9.86;100.00
23899;BME280;20544;50.018;20.010;2023-04-19T03:40:35;98772.48;;;9.81;100.00
23899;BME280;20544;50.018;20.010;2023-04-19T03:43:53;98768.37;;;9.79;100.00
23899;BME280;20544;50.018;20.010;2023-04-19T03:47:10;98760.77;;;9.52;100.00
23899;BME280;20544;50.018;20.010;2023-04-19T03:50:28;98755.11;;;9.55;100.00
23899;BME280;20544;50.018;20.010;2023-04-19T03:53:45;98752.69;;;9.46;100.00
23899;BME280;20544;50.018;20.010;2023-04-19T03:57:01;98760.11;;;9.50;100.00
23899;BME280;20544;50.018;20.010;2023-04-19T04:00:20;98751.55;;;9.48;100.00
23899;BME280;20544;50.018;20.010;2023-04-19T04:03:39;98750.22;;;9.44;100.00
23899;BME280;20544;50.018;20.010;2023-04-19T04:06:57;98746.58;;;9.45;100.00
23899;BME280;20544;50.018;20.010;2023-04-19T04:10:13;98748.23;;;9.46;100.00
23899;BME280;20544;50.018;20.010;2023-04-19T04:13:31;98750.59;;;9.41;100.00
23899;BME280;20544;50.018;20.010;2023-04-19T04:16:49;98750.14;;;9.29;100.00
23899;BME280;20544;50.018;20.010;2023-04-19T04:20:08;98750.33;;;9.28;100.00
23899;BME280;20544;50.018;20.010;2023-04-19T04:23:26;98751.20;;;9.20;100.00
23899;BME280;20544;50.018;20.010;2023-04-19T04:26:44;98752.31;;;9.26;100.00
23899;BME280;20544;50.018;20.010;2023-04-19T04:30:07;98756.09;;;9.31;100.00
23899;BME280;20544;50.018;20.010;2023-04-19T04:33:25;98751.28;;;9.35;100.00
23899;BME280;20544;50.018;20.010;2023-04-19T04:36:42;98747.98;;;9.33;100.00
23899;BME280;20544;50.018;20.010;2023-04-19T04:40:00;98756.88;;;9.40;100.00
23899;BME280;20544;50.018;20.010;2023-04-19T04:43:18;98751.17;;;9.51;100.00
23899;BME280;20544;50.018;20.010;2023-04-19T04:46:37;98739.41;;;9.54;100.00
23899;BME280;20544;50.018;20.010;2023-04-19T04:49:55;98753.08;;;9.66;100.00
23899;BME280;20544;50.018;20.010;2023-04-19T04:53:11;98749.06;;;9.70;100.00
23899;BME280;20544;50.018;20.010;2023-04-19T04:56:29;98741.45;;;9.67;100.00
23899;BME280;20544;50.018;20.010;2023-04-19T04:59:46;98750.02;;;9.77;100.00
23899;BME280;20544;50.018;20.010;2023-04-19T05:03:06;98742.35;;;9.82;100.00
23899;BME280;20544;50.018;20.010;2023-04-19T05:06:24;98741.88;;;9.79;100.00
23899;BME280;20544;50.018;20.010;2023-04-19T05:09:41;98740.36;;;9.84;100.00
23899;BME280;20544;50.018;20.010;2023-04-19T05:12:59;98726.46;;;9.82;100.00
23899;BME280;20544;50.018;20.010;2023-04-19T05:16:16;98728.64;;;9.79;100.00
23899;BME280;20544;50.018;20.010;2023-04-19T05:19:33;98742.41;;;9.74;100.00
23899;BME280;20544;50.018;20.010;2023-04-19T05:22:50;98741.30;;;9.68;100.00
23899;BME280;20544;50.018;20.010;2023-04-19T05:26:13;98743.72;;;9.78;100.00
23899;BME280;20544;50.018;20.010;2023-04-19T05:29:30;98741.22;;;9.77;100.00
23899;BME280;20544;50.018;20.010;2023-04-19T05:32:46;98739.89;;;9.81;100.00
23899;BME280;20544;50.018;20.010;2023-04-19T05:36:05;98744.16;;;9.82;100.00
23899;BME280;20544;50.018;20.010;2023-04-19T05:39:22;98735.69;;;9.86;100.00
23899;BME280;20544;50.018;20.010;2023-04-19T05:42:39;98733.88;;;9.87;100.00
23899;BME280;20544;50.018;20.010;2023-04-19T05:45:56;98734.22;;;9.84;100.00
23899;BME280;20544;50.018;20.010;2023-04-19T05:49:13;98729.77;;;9.84;100.00
23899;BME280;20544;50.018;20.010;2023-04-19T05:52:40;98739.75;;;9.74;100.00
23899;BME280;20544;50.018;20.010;2023-04-19T05:55:58;98736.30;;;9.74;100.00
23899;BME280;20544;50.018;20.010;2023-04-19T05:59:14;98744.58;;;9.70;100.00
23899;BME280;20544;50.018;20.010;2023-04-19T06:02:31;98732.23;;;9.63;100.00
23899;BME280;20544;50.018;20.010;2023-04-19T06:05:48;98739.84;;;9.66;100.00
23899;BME280;20544;50.018;20.010;2023-04-19T06:09:05;98734.35;;;9.67;100.00
23899;BME280;20544;50.018;20.010;2023-04-19T06:12:21;98734.59;;;9.58;100.00
23899;BME280;20544;50.018;20.010;2023-04-19T06:15:38;98732.45;;;9.53;100.00
23899;BME280;20544;50.018;20.010;2023-04-19T06:18:54;98734.11;;;9.54;100.00
23899;BME280;20544;50.018;20.010;2023-04-19T06:22:11;98737.75;;;9.53;100.00
23899;BME280;20544;50.018;20.010;2023-04-19T06:25:28;98737.13;;;9.51;100.00
23899;BME280;20544;50.018;20.010;2023-04-19T06:28:45;98737.05;;;9.59;100.00
23899;BME280;20544;50.018;20.010;2023-04-19T06:32:02;98737.53;;;9.63;100.00
23899;BME280;20544;50.018;20.010;2023-04-19T06:35:19;98745.13;;;9.66;100.00
23899;BME280;20544;50.018;20.010;2023-04-19T06:38:36;98749.88;;;9.70;100.00
23899;BME280;20544;50.018;20.010;2023-04-19T06:41:52;98744.77;;;9.69;100.00
23899;BME280;20544;50.018;20.010;2023-04-19T06:45:12;98752.70;;;9.69;100.00
23899;BME280;20544;50.018;20.010;2023-04-19T06:48:28;98753.00;;;9.74;100.00
23899;BME280;20544;50.018;20.010;2023-04-19T06:51:46;98757.11;;;9.77;100.00
23899;BME280;20544;50.018;20.010;2023-04-19T06:55:05;98750.48;;;9.81;100.00
23899;BME280;20544;50.018;20.010;2023-04-19T06:58:22;98750.02;;;9.77;100.00
23899;BME280;20544;50.018;20.010;2023-04-19T07:01:42;98750.48;;;9.81;100.00
23899;BME280;20544;50.018;20.010;2023-04-19T07:05:02;98756.25;;;9.84;100.00
23899;BME280;20544;50.018;20.010;2023-04-19T07:08:21;98753.89;;;9.90;100.00
23899;BME280;20544;50.018;20.010;2023-04-19T07:11:39;98752.42;;;9.87;100.00
23899;BME280;20544;50.018;20.010;2023-04-19T07:14:57;98751.30;;;9.81;100.00
23899;BME280;20544;50.018;20.010;2023-04-19T07:18:13;98754.31;;;9.78;100.00
23899;BME280;20544;50.018;20.010;2023-04-19T07:21:30;98746.70;;;9.75;100.00
23899;BME280;20544;50.018;20.010;2023-04-19T07:24:47;98748.07;;;9.71;100.00
23899;BME280;20544;50.018;20.010;2023-04-19T07:28:04;98755.54;;;9.67;100.00
23899;BME280;20544;50.018;20.010;2023-04-19T07:31:21;98751.53;;;9.71;100.00
23899;BME280;20544;50.018;20.010;2023-04-19T07:34:39;98749.17;;;9.77;100.00
23899;BME280;20544;50.018;20.010;2023-04-19T07:37:56;98740.23;;;9.78;100.00
23899;BME280;20544;50.018;20.010;2023-04-19T07:41:12;98749.30;;;9.83;100.00
23899;BME280;20544;50.018;20.010;2023-04-19T07:44:29;98747.65;;;9.82;100.00
23899;BME280;20544;50.018;20.010;2023-04-19T07:47:45;98753.94;;;9.81;100.00
23899;BME280;20544;50.018;20.010;2023-04-19T07:51:11;98754.47;;;9.77;100.00
23899;BME280;20544;50.018;20.010;2023-04-19T07:54:31;98752.42;;;9.64;100.00
23899;BME280;20544;50.018;20.010;2023-04-19T07:57:48;98756.29;;;9.53;100.00
23899;BME280;20544;50.018;20.010;2023-04-19T08:01:06;98758.78;;;9.54;100.00
23899;BME280;20544;50.018;20.010;2023-04-19T08:04:22;98761.17;;;9.41;100.00
23899;BME280;20544;50.018;20.010;2023-04-19T08:07:39;98748.97;;;9.32;100.00
23899;BME280;20544;50.018;20.010;2023-04-19T08:10:56;98753.27;;;9.33;100.00
23899;BME280;20544;50.018;20.010;2023-04-19T08:14:12;98755.73;;;9.34;100.00
23899;BME280;20544;50.018;20.010;2023-04-19T08:17:30;98757.91;;;9.31;100.00
23899;BME280;20544;50.018;20.010;2023-04-19T08:20:49;98757.20;;;9.37;100.00
23899;BME280;20544;50.018;20.010;2023-04-19T08:24:07;98752.39;;;9.41;100.00
23899;BME280;20544;50.018;20.010;2023-04-19T08:27:24;98755.19;;;9.47;100.00
23899;BME280;20544;50.018;20.010;2023-04-19T08:30:41;98754.70;;;9.44;100.00
23899;BME280;20544;50.018;20.010;2023-04-19T08:33:58;98751.55;;;9.48;100.00
23899;BME280;20544;50.018;20.010;2023-04-19T08:37:14;98759.59;;;9.55;100.00
23899;BME280;20544;50.018;20.010;2023-04-19T08:40:32;98757.90;;;9.62;100.00
23899;BME280;20544;50.018;20.010;2023-04-19T08:43:49;98760.84;;;9.67;100.00
23899;BME280;20544;50.018;20.010;2023-04-19T08:47:07;98768.97;;;9.66;100.00
23899;BME280;20544;50.018;20.010;2023-04-19T08:50:24;98768.13;;;9.65;100.00
23899;BME280;20544;50.018;20.010;2023-04-19T08:53:43;98767.31;;;9.65;100.00
23899;BME280;20544;50.018;20.010;2023-04-19T08:57:00;98766.66;;;9.63;100.00
23899;BME280;20544;50.018;20.010;2023-04-19T09:00:19;98769.48;;;9.61;100.00
23899;BME280;20544;50.018;20.010;2023-04-19T09:03:36;98766.40;;;9.49;100.00
23899;BME280;20544;50.018;20.010;2023-04-19T09:07:00;98772.36;;;9.51;100.00
23899;BME280;20544;50.018;20.010;2023-04-19T09:10:18;98773.57;;;9.41;100.00
23899;BME280;20544;50.018;20.010;2023-04-19T09:13:36;98771.95;;;9.39;100.00
23899;BME280;20544;50.018;20.010;2023-04-19T09:16:53;98774.92;;;9.36;100.00
23899;BME280;20544;50.018;20.010;2023-04-19T09:20:11;98773.75;;;9.39;100.00
23899;BME280;20544;50.018;20.010;2023-04-19T09:23:29;98787.35;;;9.36;100.00
23899;BME280;20544;50.018;20.010;2023-04-19T09:26:54;98777.24;;;9.39;100.00
23899;BME280;20544;50.018;20.010;2023-04-19T09:30:11;98777.24;;;9.39;100.00
23899;BME280;20544;50.018;20.010;2023-04-19T09:33:34;98780.04;;;9.38;100.00
23899;BME280;20544;50.018;20.010;2023-04-19T09:36:53;98784.05;;;9.34;100.00
23899;BME280;20544;50.018;20.010;2023-04-19T09:40:24;98785.03;;;9.33;100.00
23899;BME280;20544;50.018;20.010;2023-04-19T09:43:41;98780.58;;;9.33;100.00
23899;BME280;20544;50.018;20.010;2023-04-19T09:47:00;98785.73;;;9.27;100.00
23899;BME280;20544;50.018;20.010;2023-04-19T09:50:17;98782.95;;;9.20;100.00
23899;BME280;20544;50.018;20.010;2023-04-19T09:53:35;98790.53;;;9.23;100.00
23899;BME280;20544;50.018;20.010;2023-04-19T09:56:53;98792.02;;;9.26;100.00
23899;BME280;20544;50.018;20.010;2023-04-19T10:00:12;98789.24;;;9.19;100.00
23899;BME280;20544;50.018;20.010;2023-04-19T10:03:30;98794.17;;;9.22;100.00
23899;BME280;20544;50.018;20.010;2023-04-19T10:06:47;98788.76;;;9.15;100.00
23899;BME280;20544;50.018;20.010;2023-04-19T10:10:09;98785.13;;;9.16;100.00
23899;BME280;20544;50.018;20.010;2023-04-19T10:13:27;98782.30;;;9.18;100.00
23899;BME280;20544;50.018;20.010;2023-04-19T10:16:44;98789.42;;;9.17;100.00
23899;BME280;20544;50.018;20.010;2023-04-19T10:20:04;98779.80;;;9.25;100.00
23899;BME280;20544;50.018;20.010;2023-04-19T10:23:27;98780.64;;;9.17;100.00
23899;BME280;20544;50.018;20.010;2023-04-19T10:27:12;98786.92;;;9.16;100.00
23899;BME280;20544;50.018;20.010;2023-04-19T10:30:29;98787.89;;;9.23;100.00
23899;BME280;20544;50.018;20.010;2023-04-19T10:33:46;98785.42;;;9.21;100.00
23899;BME280;20544;50.018;20.010;2023-04-19T10:37:03;98783.14;;;9.18;100.00
23899;BME280;20544;50.018;20.010;2023-04-19T10:44:13;98782.11;;;9.19;100.00
23899;BME280;20544;50.018;20.010;2023-04-19T10:47:44;98783.47;;;9.15;100.00
23899;BME280;20544;50.018;20.010;2023-04-19T10:51:01;98783.34;;;9.09;100.00
23899;BME280;20544;50.018;20.010;2023-04-19T10:54:32;98783.98;;;9.11;100.00
23899;BME280;20544;50.018;20.010;2023-04-19T10:58:05;98786.98;;;9.08;100.00
23899;BME280;20544;50.018;20.010;2023-04-19T11:01:35;98777.90;;;9.02;100.00
23899;BME280;20544;50.018;20.010;2023-04-19T11:05:00;98784.18;;;9.01;100.00
23899;BME280;20544;50.018;20.010;2023-04-19T11:08:24;98781.41;;;8.94;100.00
23899;BME280;20544;50.018;20.010;2023-04-19T11:11:41;98774.33;;;8.86;100.00
23899;BME280;20544;50.018;20.010;2023-04-19T11:14:58;98773.36;;;8.79;100.00
23899;BME280;20544;50.018;20.010;2023-04-19T11:18:21;98764.72;;;8.94;100.00
23899;BME280;20544;50.018;20.010;2023-04-19T11:21:41;98760.06;;;8.96;100.00
23899;BME280;20544;50.018;20.010;2023-04-19T11:25:03;98766.30;;;9.11;100.00
23899;BME280;20544;50.018;20.010;2023-04-19T11:28:24;98768.49;;;9.31;100.00
23899;BME280;20544;50.018;20.010;2023-04-19T11:31:44;98765.00;;;9.38;100.00
23899;BME280;20544;50.018;20.010;2023-04-19T11:35:07;98761.47;;;9.46;100.00
23899;BME280;20544;50.018;20.010;2023-04-19T11:38:27;98770.19;;;9.55;100.00
23899;BME280;20544;50.018;20.010;2023-04-19T11:41:59;98771.95;;;9.63;100.00
23899;BME280;20544;50.018;20.010;2023-04-19T11:45:24;98768.59;;;9.69;100.00
23899;BME280;20544;50.018;20.010;2023-04-19T11:48:53;98782.50;;;9.71;100.00
23899;BME280;20544;50.018;20.010;2023-04-19T11:52:10;98770.14;;;9.63;100.00
23899;BME280;20544;50.018;20.010;2023-04-19T11:55:27;98778.61;;;9.59;100.00
23899;BME280;20544;50.018;20.010;2023-04-19T11:58:47;98776.59;;;9.61;100.00
23899;BME280;20544;50.018;20.010;2023-04-19T12:02:11;98779.23;;;9.61;100.00
23899;BME280;20544;50.018;20.010;2023-04-19T12:05:28;98788.50;;;9.65;100.00
23899;BME280;20544;50.018;20.010;2023-04-19T12:08:48;98783.49;;;9.70;100.00
23899;BME280;20544;50.018;20.010;2023-04-19T12:12:05;98784.16;;;9.72;100.00
23899;BME280;20544;50.018;20.010;2023-04-19T12:15:22;98790.27;;;9.73;100.00
23899;BME280;20544;50.018;20.010;2023-04-19T12:18:47;98792.62;;;9.67;100.00
23899;BME280;20544;50.018;20.010;2023-04-19T12:22:13;98796.84;;;9.77;100.00
23899;BME280;20544;50.018;20.010;2023-04-19T12:25:33;98792.87;;;9.81;100.00
23899;BME280;20544;50.018;20.010;2023-04-19T12:28:49;98784.97;;;9.73;100.00
23899;BME280;20544;50.018;20.010;2023-04-19T12:32:11;98789.13;;;9.67;100.00
23899;BME280;20544;50.018;20.010;2023-04-19T12:35:28;98784.16;;;9.72;100.00
23899;BME280;20544;50.018;20.010;2023-04-19T12:38:48;98782.61;;;9.78;100.00
23899;BME280;20544;50.018;20.010;2023-04-19T12:42:05;98777.97;;;9.80;100.00
23899;BME280;20544;50.018;20.010;2023-04-19T12:45:23;98783.66;;;9.92;100.00
23899;BME280;20544;50.018;20.010;2023-04-19T12:48:41;98783.66;;;9.92;100.00
23899;BME280;20544;50.018;20.010;2023-04-19T12:51:59;98782.66;;;9.93;100.00
23899;BME280;20544;50.018;20.010;2023-04-19T12:55:16;98787.20;;;9.84;100.00
23899;BME280;20544;50.018;20.010;2023-04-19T12:58:33;98792.55;;;9.99;100.00
23899;BME280;20544;50.018;20.010;2023-04-19T13:01:49;98788.62;;;9.95;100.00
23899;BME280;20544;50.018;20.010;2023-04-19T13:05:07;98783.61;;;10.00;100.00
23899;BME280;20544;50.018;20.010;2023-04-19T13:08:25;98783.50;;;9.93;100.00
23899;BME280;20544;50.018;20.010;2023-04-19T13:11:44;98792.45;;;9.92;100.00
23899;BME280;20544;50.018;20.010;2023-04-19T13:15:00;98783.61;;;10.00;100.00
23899;BME280;20544;50.018;20.010;2023-04-19T13:18:17;98783.61;;;10.00;100.00
23899;BME280;20544;50.018;20.010;2023-04-19T13:21:33;98780.48;;;9.96;100.00
23899;BME280;20544;50.018;20.010;2023-04-19T13:24:50;98781.85;;;9.92;100.00
23899;BME280;20544;50.018;20.010;2023-04-19T13:28:07;98787.96;;;9.93;100.00
23899;BME280;20544;50.018;20.010;2023-04-19T13:31:28;98789.80;;;9.92;100.00
23899;BME280;20544;50.018;20.010;2023-04-19T13:34:50;98789.42;;;9.95;100.00
23899;BME280;20544;50.018;20.010;2023-04-19T13:38:08;98789.72;;;10.00;100.00
23899;BME280;20544;50.018;20.010;2023-04-19T13:41:26;98791.55;;;10.00;100.00
23899;BME280;20544;50.018;20.010;2023-04-19T13:44:47;98792.78;;;10.12;100.00
23899;BME280;20544;50.018;20.010;2023-04-19T13:48:04;98788.01;;;10.08;100.00
23899;BME280;20544;50.018;20.010;2023-04-19T13:51:25;98784.89;;;10.04;100.00
23899;BME280;20544;50.018;20.010;2023-04-19T13:54:48;98779.63;;;10.19;100.00
23899;BME280;20544;50.018;20.010;2023-04-19T13:58:04;98778.91;;;10.25;100.00
23899;BME280;20544;50.018;20.010;2023-04-19T14:01:21;98782.50;;;10.32;100.00
23899;BME280;20544;50.018;20.010;2023-04-19T14:04:41;98775.70;;;10.15;100.00
23899;BME280;20544;50.018;20.010;2023-04-19T14:07:59;98782.66;;;10.16;100.00
23899;BME280;20544;50.018;20.010;2023-04-19T14:11:19;98778.91;;;10.25;100.00
23899;BME280;20544;50.018;20.010;2023-04-19T14:14:41;98775.27;;;10.26;100.00
23899;BME280;20544;50.018;20.010;2023-04-19T14:17:58;98771.05;;;10.17;100.00
23899;BME280;20544;50.018;20.010;2023-04-19T14:21:15;98767.38;;;10.18;100.00
23899;BME280;20544;50.018;20.010;2023-04-19T14:24:31;98773.42;;;10.27;100.00
23899;BME280;20544;50.018;20.010;2023-04-19T14:27:48;98775.04;;;10.36;100.00
23899;BME280;20544;50.018;20.010;2023-04-19T14:31:05;98777.78;;;10.43;100.00
23899;BME280;20544;50.018;20.010;2023-04-19T14:34:22;98775.31;;;10.41;100.00
23899;BME280;20544;50.018;20.010;2023-04-19T14:37:39;98783.64;;;10.38;100.00
23899;BME280;20544;50.018;20.010;2023-04-19T14:40:55;98780.62;;;10.41;100.00
23899;BME280;20544;50.018;20.010;2023-04-19T14:44:12;98785.58;;;10.44;100.00
23899;BME280;20544;50.018;20.010;2023-04-19T14:47:29;98781.43;;;10.42;100.00
23899;BME280;20544;50.018;20.010;2023-04-19T14:50:46;98779.16;;;10.39;100.00
23899;BME280;20544;50.018;20.010;2023-04-19T14:54:03;98785.11;;;10.41;100.00
23899;BME280;20544;50.018;20.010;2023-04-19T14:57:20;98789.31;;;10.50;100.00
23899;BME280;20544;50.018;20.010;2023-04-19T15:00:39;98792.44;;;10.54;100.00
23899;BME280;20544;50.018;20.010;2023-04-19T15:03:55;98797.27;;;10.50;100.00
23899;BME280;20544;50.018;20.010;2023-04-19T15:07:12;98798.55;;;10.54;100.00
23899;BME280;20544;50.018;20.010;2023-04-19T15:10:32;98805.70;;;10.54;100.00
23899;BME280;20544;50.018;20.010;2023-04-19T15:13:50;98797.46;;;10.48;100.00
23899;BME280;20544;50.018;20.010;2023-04-19T15:17:07;98798.12;;;10.50;100.00
23899;BME280;20544;50.018;20.010;2023-04-19T15:20:23;98799.18;;;10.41;100.00
23899;BME280;20544;50.018;20.010;2023-04-19T15:23:41;98799.55;;;10.38;100.00
23899;BME280;20544;50.018;20.010;2023-04-19T15:26:58;98802.02;;;10.40;100.00
23899;BME280;20544;50.018;20.010;2023-04-19T15:30:16;98803.52;;;10.34;100.00
23899;BME280;20544;50.018;20.010;2023-04-19T15:33:36;98805.23;;;10.27;100.00
23899;BME280;20544;50.018;20.010;2023-04-19T15:36:53;98811.28;;;10.20;100.00
23899;BME280;20544;50.018;20.010;2023-04-19T15:40:12;98814.37;;;10.24;100.00
23899;BME280;20544;50.018;20.010;2023-04-19T15:43:31;98822.64;;;10.29;100.00
23899;BME280;20544;50.018;20.010;2023-04-19T15:46:48;98811.66;;;10.32;100.00
23899;BME280;20544;50.018;20.010;2023-04-19T15:50:07;98826.09;;;10.30;100.00
23899;BME280;20544;50.018;20.010;2023-04-19T15:53:30;98817.02;;;10.24;100.00
23899;BME280;20544;50.018;20.010;2023-04-19T15:56:46;98822.51;;;10.23;100.00
23899;BME280;20544;50.018;20.010;2023-04-19T16:00:08;98826.63;;;10.25;100.00
23899;BME280;20544;50.018;20.010;2023-04-19T16:03:26;98827.47;;;10.26;100.00
23899;BME280;20544;50.018;20.010;2023-04-19T16:06:44;98832.58;;;10.27;100.00
23899;BME280;20544;50.018;20.010;2023-04-19T16:10:01;98835.05;;;10.29;100.00
23899;BME280;20544;50.018;20.010;2023-04-19T16:13:18;98833.23;;;10.29;100.00
23899;BME280;20544;50.018;20.010;2023-04-19T16:16:36;98827.09;;;10.29;100.00
23899;BME280;20544;50.018;20.010;2023-04-19T16:19:53;98830.45;;;10.23;100.00
23899;BME280;20544;50.018;20.010;2023-04-19T16:23:16;98834.11;;;10.22;100.00
23899;BME280;20544;50.018;20.010;2023-04-19T16:26:40;98835.57;;;10.24;100.00
23899;BME280;20544;50.018;20.010;2023-04-19T16:29:56;98836.41;;;10.25;100.00
23899;BME280;20544;50.018;20.010;2023-04-19T16:33:13;98839.13;;;10.16;100.00
23899;BME280;20544;50.018;20.010;2023-04-19T16:36:30;98840.72;;;10.02;100.00
23899;BME280;20544;50.018;20.010;2023-04-19T16:39:51;98843.55;;;10.01;100.00
23899;BME280;20544;50.018;20.010;2023-04-19T16:43:08;98845.25;;;9.94;100.00
23899;BME280;20544;50.018;20.010;2023-04-19T16:46:24;98840.43;;;9.97;100.00
23899;BME280;20544;50.018;20.010;2023-04-19T16:49:41;98845.25;;;9.94;100.00
23899;BME280;20544;50.018;20.010;2023-04-19T16:52:58;98846.43;;;9.91;100.00
23899;BME280;20544;50.018;20.010;2023-04-19T16:56:17;98848.56;;;9.96;100.00
23899;BME280;20544;50.018;20.010;2023-04-19T16:59:35;98848.89;;;9.93;100.00
23899;BME280;20544;50.018;20.010;2023-04-19T17:02:52;98850.73;;;9.92;100.00
23899;BME280;20544;50.018;20.010;2023-04-19T17:06:09;98854.09;;;9.86;100.00
23899;BME280;20544;50.018;20.010;2023-04-19T17:09:26;98856.03;;;9.92;100.00
23899;BME280;20544;50.018;20.010;2023-04-19T17:12:42;98858.69;;;9.92;100.00